sensor_id;sensor_type;location;lat;lon;timestamp;P1;durP1;ratioP1;P2;durP2;ratioP2
23400;SDS011;11873;49.300;8.920;2023-08-06T00:04:18;1.80;;;1.70;;
23400;SDS011;11873;49.300;8.920;2023-08-06T00:09:18;2.40;;;1.93;;
23400;SDS011;11873;49.300;8.920;2023-08-06T00:14:19;2.10;;;1.93;;
23400;SDS011;11873;49.300;8.920;2023-08-06T00:19:19;2.03;;;1.93;;
23400;SDS011;11873;49.300;8.920;2023-08-06T00:24:19;2.13;;;1.93;;
23400;SDS011;11873;49.300;8.920;2023-08-06T00:29:19;2.30;;;2.10;;
23400;SDS011;11873;49.300;8.920;2023-08-06T00:34:19;1.87;;;1.77;;
23400;SDS011;11873;49.300;8.920;2023-08-06T00:39:19;2.30;;;2.07;;
23400;SDS011;11873;49.300;8.920;2023-08-06T00:44:20;3.13;;;1.80;;
23400;SDS011;11873;49.300;8.920;2023-08-06T00:49:20;2.37;;;1.83;;
23400;SDS011;11873;49.300;8.920;2023-08-06T00:54:20;2.37;;;1.80;;
23400;SDS011;11873;49.300;8.920;2023-08-06T00:59:20;3.40;;;1.87;;
23400;SDS011;11873;49.300;8.920;2023-08-06T01:04:21;3.27;;;2.70;;
23400;SDS011;11873;49.300;8.920;2023-08-06T01:10:06;2.20;;;2.00;;
23400;SDS011;11873;49.300;8.920;2023-08-06T01:19:57;2.33;;;1.73;;
23400;SDS011;11873;49.300;8.920;2023-08-06T01:24:57;2.40;;;2.20;;
23400;SDS011;11873;49.300;8.920;2023-08-06T01:30:06;2.33;;;2.13;;
23400;SDS011;11873;49.300;8.920;2023-08-06T01:35:11;2.47;;;2.27;;
23400;SDS011;11873;49.300;8.920;2023-08-06T01:40:12;2.10;;;1.90;;
23400;SDS011;11873;49.300;8.920;2023-08-06T01:45:12;1.83;;;1.70;;
23400;SDS011;11873;49.300;8.920;2023-08-06T01:50:13;7.20;;;2.10;;
23400;SDS011;11873;49.300;8.920;2023-08-06T01:55:13;2.00;;;1.80;;
23400;SDS011;11873;49.300;8.920;2023-08-06T02:00:13;2.00;;;1.90;;
23400;SDS011;11873;49.300;8.920;2023-08-06T02:05:13;3.50;;;1.87;;
23400;SDS011;11873;49.300;8.920;2023-08-06T02:10:14;4.07;;;1.90;;
23400;SDS011;11873;49.300;8.920;2023-08-06T02:15:14;1.90;;;1.80;;
23400;SDS011;11873;49.300;8.920;2023-08-06T02:20:14;3.03;;;1.73;;
23400;SDS011;11873;49.300;8.920;2023-08-06T02:25:15;2.50;;;1.57;;
23400;SDS011;11873;49.300;8.920;2023-08-06T02:30:15;2.00;;;1.90;;
23400;SDS011;11873;49.300;8.920;2023-08-06T02:35:16;1.80;;;1.70;;
23400;SDS011;11873;49.300;8.920;2023-08-06T02:40:16;1.80;;;1.70;;
23400;SDS011;11873;49.300;8.920;2023-08-06T02:45:16;2.27;;;1.63;;
23400;SDS011;11873;49.300;8.920;2023-08-06T02:50:16;1.60;;;1.50;;
23400;SDS011;11873;49.300;8.920;2023-08-06T02:55:16;4.57;;;1.80;;
23400;SDS011;11873;49.300;8.920;2023-08-06T03:00:16;2.20;;;1.40;;
23400;SDS011;11873;49.300;8.920;2023-08-06T03:05:17;3.77;;;1.57;;
23400;SDS011;11873;49.300;8.920;2023-08-06T03:10:17;1.93;;;1.57;;
23400;SDS011;11873;49.300;8.920;2023-08-06T03:15:17;1.50;;;1.40;;
23400;SDS011;11873;49.300;8.920;2023-08-06T03:20:17;1.60;;;1.50;;
23400;SDS011;11873;49.300;8.920;2023-08-06T03:25:17;1.50;;;1.40;;
23400;SDS011;11873;49.300;8.920;2023-08-06T03:30:18;2.50;;;1.80;;
23400;SDS011;11873;49.300;8.920;2023-08-06T03:35:18;2.13;;;1.30;;
23400;SDS011;11873;49.300;8.920;2023-08-06T03:40:18;1.40;;;1.30;;
23400;SDS011;11873;49.300;8.920;2023-08-06T03:45:18;1.63;;;1.50;;
23400;SDS011;11873;49.300;8.920;2023-08-06T03:50:18;1.50;;;1.40;;
23400;SDS011;11873;49.300;8.920;2023-08-06T03:55:19;1.23;;;1.20;;
23400;SDS011;11873;49.300;8.920;2023-08-06T04:00:19;0.90;;;0.90;;
23400;SDS011;11873;49.300;8.920;2023-08-06T04:05:19;3.10;;;1.37;;
23400;SDS011;11873;49.300;8.920;2023-08-06T04:10:19;1.73;;;1.30;;
23400;SDS011;11873;49.300;8.920;2023-08-06T04:15:19;2.17;;;1.40;;
23400;SDS011;11873;49.300;8.920;2023-08-06T04:20:19;2.77;;;1.47;;
23400;SDS011;11873;49.300;8.920;2023-08-06T04:25:20;1.07;;;0.93;;
23400;SDS011;11873;49.300;8.920;2023-08-06T04:30:20;2.33;;;1.17;;
23400;SDS011;11873;49.300;8.920;2023-08-06T04:35:20;2.10;;;1.20;;
23400;SDS011;11873;49.300;8.920;2023-08-06T04:40:20;1.13;;;1.03;;
23400;SDS011;11873;49.300;8.920;2023-08-06T04:45:22;1.50;;;1.10;;
23400;SDS011;11873;49.300;8.920;2023-08-06T04:50:22;1.37;;;0.97;;
23400;SDS011;11873;49.300;8.920;2023-08-06T04:55:22;1.10;;;0.90;;
23400;SDS011;11873;49.300;8.920;2023-08-06T05:00:22;1.10;;;0.93;;
23400;SDS011;11873;49.300;8.920;2023-08-06T05:05:22;1.10;;;0.93;;
23400;SDS011;11873;49.300;8.920;2023-08-06T05:10:26;1.17;;;1.07;;
23400;SDS011;11873;49.300;8.920;2023-08-06T05:15:26;1.10;;;0.87;;
23400;SDS011;11873;49.300;8.920;2023-08-06T05:20:26;1.23;;;1.00;;
23400;SDS011;11873;49.300;8.920;2023-08-06T05:25:27;0.67;;;0.67;;
23400;SDS011;11873;49.300;8.920;2023-08-06T05:30:27;0.80;;;0.80;;
23400;SDS011;11873;49.300;8.920;2023-08-06T05:35:27;1.52;;;1.17;;
23400;SDS011;11873;49.300;8.920;2023-08-06T05:40:27;3.07;;;1.30;;
23400;SDS011;11873;49.300;8.920;2023-08-06T05:45:27;0.80;;;0.80;;
23400;SDS011;11873;49.300;8.920;2023-08-06T05:50:28;1.73;;;0.93;;
23400;SDS011;11873;49.300;8.920;2023-08-06T05:55:28;1.43;;;0.73;;
23400;SDS011;11873;49.300;8.920;2023-08-06T06:00:28;2.70;;;1.30;;
23400;SDS011;11873;49.300;8.920;2023-08-06T06:05:28;0.90;;;0.90;;
23400;SDS011;11873;49.300;8.920;2023-08-06T06:10:28;2.40;;;0.73;;
23400;SDS011;11873;49.300;8.920;2023-08-06T06:15:29;1.30;;;0.90;;
23400;SDS011;11873;49.300;8.920;2023-08-06T06:20:31;0.80;;;0.80;;
23400;SDS011;11873;49.300;8.920;2023-08-06T06:25:31;0.63;;;0.63;;
23400;SDS011;11873;49.300;8.920;2023-08-06T06:30:31;1.23;;;0.87;;
23400;SDS011;11873;49.300;8.920;2023-08-06T06:35:32;0.70;;;0.70;;
23400;SDS011;11873;49.300;8.920;2023-08-06T06:40:32;0.60;;;0.60;;
23400;SDS011;11873;49.300;8.920;2023-08-06T06:45:32;0.60;;;0.60;;
23400;SDS011;11873;49.300;8.920;2023-08-06T06:50:32;0.60;;;0.60;;
23400;SDS011;11873;49.300;8.920;2023-08-06T06:55:32;2.43;;;0.83;;
23400;SDS011;11873;49.300;8.920;2023-08-06T07:00:35;0.60;;;0.60;;
23400;SDS011;11873;49.300;8.920;2023-08-06T07:05:35;1.00;;;0.87;;
23400;SDS011;11873;49.300;8.920;2023-08-06T07:10:35;1.30;;;0.80;;
23400;SDS011;11873;49.300;8.920;2023-08-06T07:15:35;1.07;;;0.93;;
23400;SDS011;11873;49.300;8.920;2023-08-06T07:20:35;0.60;;;0.60;;
23400;SDS011;11873;49.300;8.920;2023-08-06T07:25:35;2.23;;;0.60;;
23400;SDS011;11873;49.300;8.920;2023-08-06T07:30:39;1.77;;;0.90;;
23400;SDS011;11873;49.300;8.920;2023-08-06T07:35:39;0.70;;;0.70;;
23400;SDS011;11873;49.300;8.920;2023-08-06T07:40:39;0.70;;;0.70;;
23400;SDS011;11873;49.300;8.920;2023-08-06T07:45:40;0.67;;;0.67;;
23400;SDS011;11873;49.300;8.920;2023-08-06T07:50:40;0.60;;;0.60;;
23400;SDS011;11873;49.300;8.920;2023-08-06T07:55:41;0.77;;;0.77;;
23400;SDS011;11873;49.300;8.920;2023-08-06T08:00:41;0.70;;;0.70;;
23400;SDS011;11873;49.300;8.920;2023-08-06T08:05:41;0.60;;;0.60;;
23400;SDS011;11873;49.300;8.920;2023-08-06T08:10:41;0.50;;;0.50;;
23400;SDS011;11873;49.300;8.920;2023-08-06T08:15:42;0.60;;;0.60;;
23400;SDS011;11873;49.300;8.920;2023-08-06T08:20:42;0.70;;;0.70;;
23400;SDS011;11873;49.300;8.920;2023-08-06T08:25:42;0.60;;;0.60;;
23400;SDS011;11873;49.300;8.920;2023-08-06T08:30:42;0.60;;;0.60;;
23400;SDS011;11873;49.300;8.920;2023-08-06T08:35:42;0.50;;;0.50;;
23400;SDS011;11873;49.300;8.920;2023-08-06T08:40:46;0.60;;;0.60;;
23400;SDS011;11873;49.300;8.920;2023-08-06T08:45:47;0.80;;;0.80;;
23400;SDS011;11873;49.300;8.920;2023-08-06T08:50:49;0.67;;;0.60;;
23400;SDS011;11873;49.300;8.920;2023-08-06T08:55:50;0.50;;;0.50;;
23400;SDS011;11873;49.300;8.920;2023-08-06T09:00:50;0.50;;;0.50;;
23400;SDS011;11873;49.300;8.920;2023-08-06T09:05:51;0.60;;;0.60;;
23400;SDS011;11873;49.300;8.920;2023-08-06T09:10:53;0.53;;;0.53;;
23400;SDS011;11873;49.300;8.920;2023-08-06T09:15:53;0.63;;;0.63;;
23400;SDS011;11873;49.300;8.920;2023-08-06T09:20:53;0.53;;;0.53;;
23400;SDS011;11873;49.300;8.920;2023-08-06T09:25:53;0.70;;;0.70;;
23400;SDS011;11873;49.300;8.920;2023-08-06T09:30:54;0.50;;;0.50;;
23400;SDS011;11873;49.300;8.920;2023-08-06T09:35:54;0.80;;;0.80;;
23400;SDS011;11873;49.300;8.920;2023-08-06T09:40:54;0.63;;;0.63;;
23400;SDS011;11873;49.300;8.920;2023-08-06T09:45:54;0.60;;;0.60;;
23400;SDS011;11873;49.300;8.920;2023-08-06T09:50:54;0.60;;;0.60;;
23400;SDS011;11873;49.300;8.920;2023-08-06T09:55:55;0.57;;;0.57;;
23400;SDS011;11873;49.300;8.920;2023-08-06T10:00:56;0.70;;;0.70;;
23400;SDS011;11873;49.300;8.920;2023-08-06T10:05:56;0.50;;;0.50;;
23400;SDS011;11873;49.300;8.920;2023-08-06T10:10:57;0.63;;;0.63;;
23400;SDS011;11873;49.300;8.920;2023-08-06T10:15:58;0.40;;;0.40;;
23400;SDS011;11873;49.300;8.920;2023-08-06T10:20:59;0.50;;;0.50;;
23400;SDS011;11873;49.300;8.920;2023-08-06T10:25:59;0.60;;;0.60;;
23400;SDS011;11873;49.300;8.920;2023-08-06T10:30:59;0.50;;;0.50;;
23400;SDS011;11873;49.300;8.920;2023-08-06T10:36:03;0.50;;;0.50;;
23400;SDS011;11873;49.300;8.920;2023-08-06T10:41:03;0.50;;;0.50;;
23400;SDS011;11873;49.300;8.920;2023-08-06T10:46:04;0.60;;;0.60;;
23400;SDS011;11873;49.300;8.920;2023-08-06T10:51:09;0.50;;;0.50;;
23400;SDS011;11873;49.300;8.920;2023-08-06T10:56:13;0.53;;;0.53;;
23400;SDS011;11873;49.300;8.920;2023-08-06T11:01:13;0.60;;;0.60;;
23400;SDS011;11873;49.300;8.920;2023-08-06T11:06:17;0.50;;;0.50;;
23400;SDS011;11873;49.300;8.920;2023-08-06T11:11:17;0.57;;;0.57;;
23400;SDS011;11873;49.300;8.920;2023-08-06T11:16:26;0.50;;;0.50;;
23400;SDS011;11873;49.300;8.920;2023-08-06T11:21:27;0.40;;;0.40;;
23400;SDS011;11873;49.300;8.920;2023-08-06T11:26:27;0.30;;;0.30;;
23400;SDS011;11873;49.300;8.920;2023-08-06T11:31:27;0.40;;;0.40;;
23400;SDS011;11873;49.300;8.920;2023-08-06T11:36:30;0.40;;;0.40;;
23400;SDS011;11873;49.300;8.920;2023-08-06T11:41:34;0.40;;;0.40;;
23400;SDS011;11873;49.300;8.920;2023-08-06T11:46:51;0.40;;;0.40;;
23400;SDS011;11873;49.300;8.920;2023-08-06T11:51:51;0.40;;;0.40;;
23400;SDS011;11873;49.300;8.920;2023-08-06T11:56:52;0.40;;;0.40;;
23400;SDS011;11873;49.300;8.920;2023-08-06T12:01:52;0.40;;;0.40;;
23400;SDS011;11873;49.300;8.920;2023-08-06T12:06:52;0.30;;;0.30;;
23400;SDS011;11873;49.300;8.920;2023-08-06T12:11:52;0.40;;;0.40;;
23400;SDS011;11873;49.300;8.920;2023-08-06T12:16:52;0.40;;;0.40;;
23400;SDS011;11873;49.300;8.920;2023-08-06T12:21:52;0.40;;;0.40;;
23400;SDS011;11873;49.300;8.920;2023-08-06T12:26:53;0.40;;;0.40;;
23400;SDS011;11873;49.300;8.920;2023-08-06T12:31:53;0.40;;;0.40;;
23400;SDS011;11873;49.300;8.920;2023-08-06T12:36:53;0.40;;;0.40;;
23400;SDS011;11873;49.300;8.920;2023-08-06T12:41:53;0.40;;;0.40;;
23400;SDS011;11873;49.300;8.920;2023-08-06T12:46:54;0.30;;;0.30;;
23400;SDS011;11873;49.300;8.920;2023-08-06T12:51:54;0.40;;;0.40;;
23400;SDS011;11873;49.300;8.920;2023-08-06T12:56:54;0.40;;;0.40;;
23400;SDS011;11873;49.300;8.920;2023-08-06T13:01:54;0.40;;;0.40;;
23400;SDS011;11873;49.300;8.920;2023-08-06T13:06:55;0.40;;;0.40;;
23400;SDS011;11873;49.300;8.920;2023-08-06T13:11:55;0.30;;;0.30;;
23400;SDS011;11873;49.300;8.920;2023-08-06T13:16:55;0.40;;;0.40;;
23400;SDS011;11873;49.300;8.920;2023-08-06T13:26:58;0.40;;;0.40;;
23400;SDS011;11873;49.300;8.920;2023-08-06T13:31:58;0.30;;;0.30;;
23400;SDS011;11873;49.300;8.920;2023-08-06T13:36:59;0.40;;;0.40;;
23400;SDS011;11873;49.300;8.920;2023-08-06T13:41:59;0.40;;;0.40;;
23400;SDS011;11873;49.300;8.920;2023-08-06T13:46:59;0.30;;;0.30;;
23400;SDS011;11873;49.300;8.920;2023-08-06T13:51:59;0.40;;;0.40;;
23400;SDS011;11873;49.300;8.920;2023-08-06T13:56:59;0.30;;;0.30;;
23400;SDS011;11873;49.300;8.920;2023-08-06T14:01:59;0.40;;;0.40;;
23400;SDS011;11873;49.300;8.920;2023-08-06T14:07:00;0.40;;;0.40;;
23400;SDS011;11873;49.300;8.920;2023-08-06T14:12:00;0.40;;;0.40;;
23400;SDS011;11873;49.300;8.920;2023-08-06T14:17:00;0.40;;;0.40;;
23400;SDS011;11873;49.300;8.920;2023-08-06T14:22:01;0.40;;;0.40;;
23400;SDS011;11873;49.300;8.920;2023-08-06T14:27:01;0.30;;;0.30;;
23400;SDS011;11873;49.300;8.920;2023-08-06T14:32:01;0.40;;;0.40;;
23400;SDS011;11873;49.300;8.920;2023-08-06T14:37:01;0.40;;;0.40;;
23400;SDS011;11873;49.300;8.920;2023-08-06T14:42:02;0.40;;;0.40;;
23400;SDS011;11873;49.300;8.920;2023-08-06T14:47:02;0.40;;;0.40;;
23400;SDS011;11873;49.300;8.920;2023-08-06T14:52:03;0.40;;;0.40;;
23400;SDS011;11873;49.300;8.920;2023-08-06T14:57:03;0.40;;;0.40;;
23400;SDS011;11873;49.300;8.920;2023-08-06T15:02:03;0.40;;;0.40;;
23400;SDS011;11873;49.300;8.920;2023-08-06T15:07:04;0.40;;;0.40;;
23400;SDS011;11873;49.300;8.920;2023-08-06T15:12:04;0.40;;;0.40;;
23400;SDS011;11873;49.300;8.920;2023-08-06T15:17:04;0.40;;;0.40;;
23400;SDS011;11873;49.300;8.920;2023-08-06T15:22:07;0.40;;;0.40;;
23400;SDS011;11873;49.300;8.920;2023-08-06T15:27:10;0.40;;;0.40;;
23400;SDS011;11873;49.300;8.920;2023-08-06T15:32:10;0.40;;;0.40;;
23400;SDS011;11873;49.300;8.920;2023-08-06T15:37:10;0.40;;;0.40;;
23400;SDS011;11873;49.300;8.920;2023-08-06T15:42:10;0.40;;;0.40;;
23400;SDS011;11873;49.300;8.920;2023-08-06T15:47:10;0.30;;;0.30;;
23400;SDS011;11873;49.300;8.920;2023-08-06T15:52:11;0.40;;;0.40;;
23400;SDS011;11873;49.300;8.920;2023-08-06T15:57:11;0.33;;;0.33;;
23400;SDS011;11873;49.300;8.920;2023-08-06T16:02:11;0.40;;;0.40;;
23400;SDS011;11873;49.300;8.920;2023-08-06T16:07:11;0.40;;;0.40;;
23400;SDS011;11873;49.300;8.920;2023-08-06T16:12:11;0.37;;;0.37;;
23400;SDS011;11873;49.300;8.920;2023-08-06T16:17:12;0.40;;;0.40;;
23400;SDS011;11873;49.300;8.920;2023-08-06T16:22:12;0.40;;;0.40;;
23400;SDS011;11873;49.300;8.920;2023-08-06T16:27:12;0.40;;;0.40;;
23400;SDS011;11873;49.300;8.920;2023-08-06T16:32:12;0.40;;;0.40;;
23400;SDS011;11873;49.300;8.920;2023-08-06T16:37:13;0.40;;;0.40;;
23400;SDS011;11873;49.300;8.920;2023-08-06T16:42:13;0.40;;;0.40;;
23400;SDS011;11873;49.300;8.920;2023-08-06T16:47:13;0.40;;;0.40;;
23400;SDS011;11873;49.300;8.920;2023-08-06T16:52:13;0.40;;;0.40;;
23400;SDS011;11873;49.300;8.920;2023-08-06T16:57:13;0.40;;;0.40;;
23400;SDS011;11873;49.300;8.920;2023-08-06T17:02:14;0.40;;;0.40;;
23400;SDS011;11873;49.300;8.920;2023-08-06T17:07:14;0.40;;;0.40;;
23400;SDS011;11873;49.300;8.920;2023-08-06T17:12:14;0.40;;;0.40;;
23400;SDS011;11873;49.300;8.920;2023-08-06T17:17:14;0.40;;;0.40;;
23400;SDS011;11873;49.300;8.920;2023-08-06T17:22:14;0.40;;;0.40;;
23400;SDS011;11873;49.300;8.920;2023-08-06T17:27:14;0.40;;;0.40;;
23400;SDS011;11873;49.300;8.920;2023-08-06T17:32:15;0.40;;;0.40;;
23400;SDS011;11873;49.300;8.920;2023-08-06T17:37:15;0.40;;;0.40;;
23400;SDS011;11873;49.300;8.920;2023-08-06T17:42:15;0.50;;;0.50;;
23400;SDS011;11873;49.300;8.920;2023-08-06T17:47:15;1.63;;;0.60;;
23400;SDS011;11873;49.300;8.920;2023-08-06T17:52:15;0.60;;;0.60;;
23400;SDS011;11873;49.300;8.920;2023-08-06T17:57:16;0.73;;;0.70;;
23400;SDS011;11873;49.300;8.920;2023-08-06T18:02:16;0.70;;;0.70;;
23400;SDS011;11873;49.300;8.920;2023-08-06T18:07:16;1.10;;;0.80;;
23400;SDS011;11873;49.300;8.920;2023-08-06T18:12:16;0.97;;;0.77;;
23400;SDS011;11873;49.300;8.920;2023-08-06T18:17:16;0.73;;;0.73;;
23400;SDS011;11873;49.300;8.920;2023-08-06T18:22:16;0.80;;;0.80;;
23400;SDS011;11873;49.300;8.920;2023-08-06T18:27:17;0.80;;;0.80;;
23400;SDS011;11873;49.300;8.920;2023-08-06T18:32:17;0.80;;;0.80;;
23400;SDS011;11873;49.300;8.920;2023-08-06T18:37:17;0.80;;;0.80;;
23400;SDS011;11873;49.300;8.920;2023-08-06T18:42:17;0.67;;;0.67;;
23400;SDS011;11873;49.300;8.920;2023-08-06T18:47:17;0.90;;;0.90;;
23400;SDS011;11873;49.300;8.920;2023-08-06T18:52:18;0.70;;;0.70;;
23400;SDS011;11873;49.300;8.920;2023-08-06T18:57:18;1.00;;;1.00;;
23400;SDS011;11873;49.300;8.920;2023-08-06T19:02:18;0.60;;;0.60;;
23400;SDS011;11873;49.300;8.920;2023-08-06T19:07:18;0.90;;;0.90;;
23400;SDS011;11873;49.300;8.920;2023-08-06T19:12:18;1.00;;;1.00;;
23400;SDS011;11873;49.300;8.920;2023-08-06T19:17:19;1.93;;;1.20;;
23400;SDS011;11873;49.300;8.920;2023-08-06T19:22:19;0.97;;;0.93;;
23400;SDS011;11873;49.300;8.920;2023-08-06T19:27:19;1.40;;;1.00;;
23400;SDS011;11873;49.300;8.920;2023-08-06T19:32:19;1.10;;;1.10;;
23400;SDS011;11873;49.300;8.920;2023-08-06T19:37:19;0.83;;;0.83;;
23400;SDS011;11873;49.300;8.920;2023-08-06T19:42:20;1.93;;;1.10;;
23400;SDS011;11873;49.300;8.920;2023-08-06T19:47:20;2.40;;;1.10;;
23400;SDS011;11873;49.300;8.920;2023-08-06T19:52:20;1.13;;;0.80;;
23400;SDS011;11873;49.300;8.920;2023-08-06T19:57:20;1.17;;;1.07;;
23400;SDS011;11873;49.300;8.920;2023-08-06T20:02:20;2.50;;;1.10;;
23400;SDS011;11873;49.300;8.920;2023-08-06T20:07:21;0.80;;;0.80;;
23400;SDS011;11873;49.300;8.920;2023-08-06T20:12:21;0.90;;;0.90;;
23400;SDS011;11873;49.300;8.920;2023-08-06T20:17:21;0.87;;;0.87;;
23400;SDS011;11873;49.300;8.920;2023-08-06T20:22:21;0.80;;;0.80;;
23400;SDS011;11873;49.300;8.920;2023-08-06T20:27:21;0.70;;;0.70;;
23400;SDS011;11873;49.300;8.920;2023-08-06T20:32:21;0.80;;;0.80;;
23400;SDS011;11873;49.300;8.920;2023-08-06T20:37:22;0.97;;;0.97;;
23400;SDS011;11873;49.300;8.920;2023-08-06T20:42:22;0.90;;;0.90;;
23400;SDS011;11873;49.300;8.920;2023-08-06T20:47:22;0.70;;;0.70;;
23400;SDS011;11873;49.300;8.920;2023-08-06T20:52:22;0.67;;;0.67;;
23400;SDS011;11873;49.300;8.920;2023-08-06T20:57:22;1.10;;;1.00;;
23400;SDS011;11873;49.300;8.920;2023-08-06T21:02:24;0.90;;;0.90;;
23400;SDS011;11873;49.300;8.920;2023-08-06T21:07:24;0.70;;;0.70;;
23400;SDS011;11873;49.300;8.920;2023-08-06T21:12:24;0.53;;;0.53;;
23400;SDS011;11873;49.300;8.920;2023-08-06T21:17:24;0.67;;;0.60;;
23400;SDS011;11873;49.300;8.920;2023-08-06T21:22:25;0.73;;;0.73;;
23400;SDS011;11873;49.300;8.920;2023-08-06T21:27:25;0.67;;;0.67;;
23400;SDS011;11873;49.300;8.920;2023-08-06T21:32:25;1.50;;;0.90;;
23400;SDS011;11873;49.300;8.920;2023-08-06T21:37:25;1.57;;;1.13;;
23400;SDS011;11873;49.300;8.920;2023-08-06T21:42:26;0.83;;;0.83;;
23400;SDS011;11873;49.300;8.920;2023-08-06T21:47:26;1.00;;;0.90;;
23400;SDS011;11873;49.300;8.920;2023-08-06T21:52:26;0.87;;;0.87;;
23400;SDS011;11873;49.300;8.920;2023-08-06T21:57:26;0.97;;;0.87;;
23400;SDS011;11873;49.300;8.920;2023-08-06T22:02:26;0.50;;;0.50;;
23400;SDS011;11873;49.300;8.920;2023-08-06T22:07:27;1.23;;;1.00;;
23400;SDS011;11873;49.300;8.920;2023-08-06T22:12:27;0.40;;;0.40;;
23400;SDS011;11873;49.300;8.920;2023-08-06T22:17:27;0.40;;;0.40;;
23400;SDS011;11873;49.300;8.920;2023-08-06T22:22:27;0.40;;;0.40;;
23400;SDS011;11873;49.300;8.920;2023-08-06T22:27:27;0.40;;;0.40;;
23400;SDS011;11873;49.300;8.920;2023-08-06T22:32:27;0.40;;;0.40;;
23400;SDS011;11873;49.300;8.920;2023-08-06T22:37:28;0.40;;;0.40;;
23400;SDS011;11873;49.300;8.920;2023-08-06T22:42:29;0.40;;;0.40;;
23400;SDS011;11873;49.300;8.920;2023-08-06T22:47:29;0.40;;;0.40;;
23400;SDS011;11873;49.300;8.920;2023-08-06T22:52:30;0.40;;;0.40;;
23400;SDS011;11873;49.300;8.920;2023-08-06T22:57:30;0.40;;;0.40;;
23400;SDS011;11873;49.300;8.920;2023-08-06T23:02:31;0.40;;;0.40;;
23400;SDS011;11873;49.300;8.920;2023-08-06T23:07:31;0.40;;;0.40;;
23400;SDS011;11873;49.300;8.920;2023-08-06T23:12:31;0.37;;;0.37;;
23400;SDS011;11873;49.300;8.920;2023-08-06T23:17:31;0.40;;;0.40;;
23400;SDS011;11873;49.300;8.920;2023-08-06T23:22:32;0.40;;;0.40;;
23400;SDS011;11873;49.300;8.920;2023-08-06T23:27:32;0.40;;;0.40;;
23400;SDS011;11873;49.300;8.920;2023-08-06T23:32:33;0.40;;;0.40;;
23400;SDS011;11873;49.300;8.920;2023-08-06T23:37:33;0.30;;;0.30;;
23400;SDS011;11873;49.300;8.920;2023-08-06T23:42:34;0.40;;;0.40;;
23400;SDS011;11873;49.300;8.920;2023-08-06T23:47:34;0.30;;;0.30;;
23400;SDS011;11873;49.300;8.920;2023-08-06T23:52:34;0.40;;;0.40;;
23400;SDS011;11873;49.300;8.920;2023-08-06T23:57:34;0.30;;;0.30;;
